Time;durP1;ratioP1;P1;durP2;ratioP2;P2;SDS_P1;SDS_P2;PMS_P1;PMS_P2;Temp;Humidity;BMP_temperature;BMP_pressure;BME280_temperature;BME280_humidity;BME280_pressure;Samples;Min_cycle;Max_cycle;Signal;HPM_P1;HPM_P2
2021/08/03 00:00:21;;;;;;;1.52;0.68;;;15.80;99.90;;;;;;4939252;29;20209;-78
2021/08/03 00:02:47;;;;;;;0.60;0.60;;;15.80;99.90;;;;;;4937499;29;20175;-79
2021/08/03 00:05:20;;;;;;;0.73;0.60;;;15.80;99.90;;;;;;4937847;29;20182;-78
2021/08/03 00:07:47;;;;;;;0.80;0.47;;;15.80;99.90;;;;;;4937243;29;20661;-78
2021/08/03 00:10:17;;;;;;;0.43;0.43;;;15.80;99.90;;;;;;4935342;29;20193;-78
2021/08/03 00:12:51;;;;;;;0.40;0.40;;;15.70;99.90;;;;;;4931433;29;20190;-78
2021/08/03 00:15:23;;;;;;;0.43;0.43;;;15.70;99.90;;;;;;4935691;29;20178;-79
2021/08/03 00:17:53;;;;;;;0.60;0.50;;;15.60;99.90;;;;;;4937103;29;20214;-79
2021/08/03 00:20:20;;;;;;;0.60;0.52;;;15.60;99.90;;;;;;4938528;29;21257;-79
2021/08/03 00:22:46;;;;;;;0.80;0.63;;;15.60;99.90;;;;;;4938976;29;20194;-79
2021/08/03 00:25:12;;;;;;;0.95;0.60;;;15.50;99.90;;;;;;4938166;29;20225;-79
2021/08/03 00:27:40;;;;;;;0.88;0.60;;;15.50;99.90;;;;;;4936237;29;20214;-79
2021/08/03 00:30:06;;;;;;;0.95;0.73;;;15.50;99.90;;;;;;4939391;29;20324;-79
2021/08/03 00:32:32;;;;;;;1.17;0.63;;;15.50;99.90;;;;;;4936919;29;20198;-79
2021/08/03 00:34:58;;;;;;;0.65;0.60;;;15.50;99.90;;;;;;4938238;29;20935;-78
2021/08/03 00:37:23;;;;;;;0.50;0.50;;;15.60;99.90;;;;;;4934627;29;20253;-79
2021/08/03 00:39:49;;;;;;;1.20;0.60;;;15.60;99.90;;;;;;4936239;29;20242;-78
2021/08/03 00:42:15;;;;;;;1.05;0.70;;;15.60;99.90;;;;;;4932710;29;20565;-78
2021/08/03 00:44:44;;;;;;;1.70;0.43;;;15.70;99.90;;;;;;4930667;29;20198;-78
2021/08/03 00:47:11;;;;;;;0.63;0.60;;;15.60;99.90;;;;;;4930561;29;20201;-78
2021/08/03 00:49:38;;;;;;;0.77;0.65;;;15.60;99.90;;;;;;4930977;29;20736;-78
2021/08/03 00:52:04;;;;;;;1.23;0.93;;;15.60;99.90;;;;;;4930839;29;20772;-77
2021/08/03 00:54:31;;;;;;;0.75;0.70;;;15.60;99.90;;;;;;4928958;29;20186;-77
2021/08/03 00:56:58;;;;;;;0.73;0.60;;;15.60;99.90;;;;;;4929936;29;20282;-76
2021/08/03 00:59:24;;;;;;;0.65;0.50;;;15.60;99.90;;;;;;4929920;29;20214;-76
2021/08/03 01:01:49;;;;;;;0.70;0.70;;;15.60;99.90;;;;;;4930137;29;20644;-79
2021/08/03 01:04:17;;;;;;;0.70;0.68;;;15.60;99.90;;;;;;4928869;29;20185;-78
2021/08/03 01:06:45;;;;;;;0.93;0.70;;;15.60;99.90;;;;;;4930504;29;20249;-76
2021/08/03 01:09:15;;;;;;;0.88;0.65;;;15.60;99.90;;;;;;4930848;29;20187;-76
2021/08/03 01:12:01;;;;;;;1.30;0.80;;;15.60;99.90;;;;;;4930865;29;20657;-78
2021/08/03 01:14:26;;;;;;;1.40;0.90;;;15.60;99.90;;;;;;4929698;29;20214;-79
2021/08/03 01:17:00;;;;;;;1.60;0.75;;;15.50;99.90;;;;;;4930512;29;20316;-77
2021/08/03 01:20:03;;;;;;;1.55;0.90;;;15.50;99.90;;;;;;4930824;29;20292;-77
2021/08/03 01:22:40;;;;;;;0.85;0.60;;;15.40;99.90;;;;;;4930808;29;20193;-79
2021/08/03 01:25:44;;;;;;;1.85;1.15;;;15.40;99.90;;;;;;4931251;29;20212;-77
2021/08/03 01:28:16;;;;;;;2.35;1.02;;;15.30;99.90;;;;;;4929303;29;20174;-78
2021/08/03 01:30:46;;;;;;;2.08;0.73;;;15.30;99.90;;;;;;4929298;29;20213;-78
2021/08/03 01:33:14;;;;;;;0.77;0.70;;;15.30;99.90;;;;;;4930825;29;20676;-78
2021/08/03 01:35:42;;;;;;;2.88;1.05;;;15.30;99.90;;;;;;4930150;29;20781;-79
2021/08/03 01:38:11;;;;;;;0.73;0.68;;;15.30;99.90;;;;;;4930591;29;20194;-77
2021/08/03 01:40:38;;;;;;;1.75;1.25;;;15.30;99.90;;;;;;4928761;29;20221;-78
2021/08/03 01:43:05;;;;;;;1.70;0.80;;;15.30;99.90;;;;;;4928658;29;20179;-79
2021/08/03 01:45:31;;;;;;;2.40;0.90;;;15.30;99.90;;;;;;4932543;29;20603;-78
2021/08/03 01:47:59;;;;;;;0.73;0.70;;;15.30;99.90;;;;;;4932772;29;20190;-77
2021/08/03 01:50:25;;;;;;;0.70;0.70;;;15.40;99.90;;;;;;4932618;29;20186;-78
2021/08/03 01:52:53;;;;;;;2.15;0.68;;;15.30;99.90;;;;;;4931132;29;20237;-78
2021/08/03 01:55:20;;;;;;;1.40;0.68;;;15.30;99.90;;;;;;4931503;29;20189;-78
2021/08/03 01:57:46;;;;;;;0.80;0.70;;;15.30;99.90;;;;;;4932324;29;20206;-78
2021/08/03 02:00:12;;;;;;;1.08;0.80;;;15.30;99.90;;;;;;4931649;29;20213;-78
2021/08/03 02:02:39;;;;;;;1.80;0.93;;;15.30;99.90;;;;;;4930476;29;20201;-78
2021/08/03 02:05:06;;;;;;;0.70;0.60;;;15.30;99.90;;;;;;4931776;29;20197;-78
2021/08/03 02:07:33;;;;;;;1.63;1.02;;;15.30;99.90;;;;;;4931374;29;20293;-77
2021/08/03 02:09:59;;;;;;;1.58;0.82;;;15.20;99.90;;;;;;4931557;29;20193;-77
2021/08/03 02:12:25;;;;;;;1.25;0.60;;;15.30;99.90;;;;;;4930293;29;20190;-79
2021/08/03 02:14:50;;;;;;;1.13;0.63;;;15.20;99.90;;;;;;4931275;29;20374;-78
2021/08/03 02:17:22;;;;;;;1.20;0.88;;;15.20;99.90;;;;;;4932279;29;20309;-78
2021/08/03 02:19:49;;;;;;;1.13;0.80;;;15.20;99.90;;;;;;4931462;29;20225;-78
2021/08/03 02:22:16;;;;;;;1.60;0.90;;;15.10;99.90;;;;;;4932228;29;20265;-78
2021/08/03 02:24:42;;;;;;;0.82;0.60;;;15.10;99.90;;;;;;4932169;29;20186;-78
2021/08/03 02:27:08;;;;;;;0.60;0.60;;;15.00;99.90;;;;;;4932546;29;20293;-78
2021/08/03 02:29:37;;;;;;;1.42;0.73;;;15.00;99.90;;;;;;4932839;29;20233;-78
2021/08/03 02:32:10;;;;;;;1.90;1.05;;;15.00;99.90;;;;;;4931149;29;20194;-78
2021/08/03 02:34:47;;;;;;;0.90;0.60;;;15.00;99.90;;;;;;4931878;29;20205;-77
2021/08/03 02:37:17;;;;;;;0.93;0.65;;;15.10;99.90;;;;;;4932938;29;20220;-78
2021/08/03 02:39:44;;;;;;;0.93;0.88;;;15.10;99.90;;;;;;4932690;29;20245;-78
2021/08/03 02:42:11;;;;;;;0.70;0.52;;;15.20;99.90;;;;;;4932672;29;20186;-78
2021/08/03 02:44:40;;;;;;;1.15;0.85;;;15.20;99.90;;;;;;4932221;29;20189;-78
2021/08/03 02:47:19;;;;;;;0.82;0.80;;;15.10;99.90;;;;;;4931847;29;20202;-77
2021/08/03 02:49:48;;;;;;;0.93;0.80;;;15.20;99.90;;;;;;4931852;29;20237;-78
2021/08/03 02:52:16;;;;;;;0.57;0.57;;;15.10;99.90;;;;;;4932248;29;20191;-78
2021/08/03 02:54:47;;;;;;;1.10;0.75;;;15.10;99.90;;;;;;4946143;29;20190;-79
2021/08/03 02:57:14;;;;;;;3.92;1.55;;;15.10;99.90;;;;;;4931912;29;20202;-78
2021/08/03 02:59:44;;;;;;;0.68;0.68;;;15.00;99.90;;;;;;4931523;29;20280;-77
2021/08/03 03:02:13;;;;;;;0.70;0.68;;;15.10;99.90;;;;;;4932114;29;20182;-77
2021/08/03 03:04:55;;;;;;;2.53;0.73;;;15.10;99.90;;;;;;4931639;29;20387;-77
2021/08/03 03:07:31;;;;;;;1.33;0.80;;;15.10;99.90;;;;;;4931838;29;20202;-78
2021/08/03 03:09:58;;;;;;;1.45;0.75;;;15.10;99.90;;;;;;4930630;29;20189;-78
2021/08/03 03:12:26;;;;;;;1.08;0.68;;;15.10;99.90;;;;;;4945880;29;20226;-78
2021/08/03 03:14:55;;;;;;;0.93;0.82;;;15.10;99.90;;;;;;4931796;29;20182;-78
2021/08/03 03:17:21;;;;;;;1.42;0.55;;;15.20;99.90;;;;;;4931385;29;20206;-77
2021/08/03 03:19:48;;;;;;;1.65;0.73;;;15.10;99.90;;;;;;4931132;29;20215;-77
2021/08/03 03:22:15;;;;;;;0.82;0.77;;;15.20;99.90;;;;;;4929274;29;20236;-78
2021/08/03 03:24:42;;;;;;;0.70;0.60;;;15.10;99.90;;;;;;4928128;29;20291;-77
2021/08/03 03:27:10;;;;;;;2.63;0.95;;;15.00;99.90;;;;;;4931625;29;20209;-79
2021/08/03 03:29:38;;;;;;;1.33;0.68;;;14.90;99.90;;;;;;4936093;29;20194;-79
2021/08/03 03:32:05;;;;;;;1.20;0.90;;;14.90;99.90;;;;;;4935887;29;20182;-78
2021/08/03 03:34:32;;;;;;;0.80;0.80;;;15.00;99.90;;;;;;4934685;29;20912;-79
2021/08/03 03:36:58;;;;;;;2.13;0.60;;;15.00;99.90;;;;;;4934569;29;20212;-78
2021/08/03 03:39:25;;;;;;;1.48;1.20;;;15.00;99.90;;;;;;4935813;29;20630;-78
2021/08/03 03:41:56;;;;;;;1.00;0.90;;;15.10;99.90;;;;;;4936091;29;20660;-78
2021/08/03 03:44:22;;;;;;;1.20;1.02;;;15.00;99.90;;;;;;4935929;29;20194;-78
2021/08/03 03:47:01;;;;;;;2.65;0.80;;;14.90;99.90;;;;;;4935947;29;20218;-78
2021/08/03 03:49:33;;;;;;;0.80;0.77;;;14.90;99.90;;;;;;4935195;29;20213;-77
2021/08/03 03:52:03;;;;;;;1.73;0.98;;;14.90;99.90;;;;;;4935768;29;20193;-78
2021/08/03 03:54:36;;;;;;;0.98;0.90;;;14.90;99.90;;;;;;4934445;29;20194;-78
2021/08/03 03:57:05;;;;;;;0.70;0.45;;;14.80;99.90;;;;;;4933809;29;20625;-78
2021/08/03 03:59:31;;;;;;;0.70;0.65;;;14.80;99.90;;;;;;4935059;29;20205;-78
2021/08/03 04:02:02;;;;;;;0.77;0.60;;;14.90;99.90;;;;;;4935801;29;20277;-77
2021/08/03 04:04:29;;;;;;;0.90;0.85;;;14.90;99.90;;;;;;4936929;29;20193;-78
2021/08/03 04:06:55;;;;;;;1.10;0.80;;;14.80;99.90;;;;;;4939578;29;20229;-79
2021/08/03 04:09:24;;;;;;;0.82;0.82;;;14.80;99.90;;;;;;4941179;29;20223;-78
2021/08/03 04:11:51;;;;;;;1.27;0.75;;;14.80;99.90;;;;;;4940040;29;20197;-78
2021/08/03 04:14:23;;;;;;;0.70;0.70;;;14.70;99.90;;;;;;4940142;29;20273;-78
2021/08/03 04:16:49;;;;;;;2.55;1.35;;;14.80;99.90;;;;;;4941498;29;20234;-77
2021/08/03 04:19:15;;;;;;;1.10;0.73;;;15.00;99.90;;;;;;4940355;29;20202;-78
2021/08/03 04:21:42;;;;;;;1.73;0.88;;;15.00;99.90;;;;;;4940706;29;20236;-79
2021/08/03 04:24:08;;;;;;;1.20;1.08;;;15.00;99.90;;;;;;4941103;29;20188;-79
2021/08/03 04:26:35;;;;;;;2.30;1.00;;;15.00;99.90;;;;;;4955862;29;20265;-79
2021/08/03 04:29:01;;;;;;;1.13;0.80;;;15.10;99.90;;;;;;4938946;29;20190;-78
2021/08/03 04:31:26;;;;;;;1.23;0.90;;;15.10;99.90;;;;;;4940611;29;20565;-78
2021/08/03 04:33:52;;;;;;;2.10;1.08;;;15.10;99.90;;;;;;4941002;29;20217;-79
2021/08/03 04:36:18;;;;;;;2.08;1.00;;;15.20;99.90;;;;;;4940723;29;20221;-79
2021/08/03 04:38:44;;;;;;;1.98;1.30;;;15.20;99.90;;;;;;4940530;29;20305;-78
2021/08/03 04:41:09;;;;;;;0.73;0.73;;;15.30;99.90;;;;;;4940808;29;20249;-78
2021/08/03 04:43:35;;;;;;;0.90;0.90;;;15.30;99.90;;;;;;4939649;29;20186;-78
2021/08/03 04:46:00;;;;;;;0.57;0.57;;;15.20;99.90;;;;;;4940695;29;20214;-79
2021/08/03 04:48:26;;;;;;;0.80;0.80;;;15.20;99.90;;;;;;4939519;29;20293;-78
2021/08/03 04:50:51;;;;;;;0.80;0.70;;;15.20;99.90;;;;;;4940978;29;20179;-79
2021/08/03 04:53:17;;;;;;;0.85;0.85;;;15.30;99.90;;;;;;4940832;29;20193;-79
2021/08/03 04:55:42;;;;;;;1.27;1.08;;;15.20;99.90;;;;;;4940197;29;20198;-79
2021/08/03 04:58:08;;;;;;;0.77;0.73;;;15.30;99.90;;;;;;4940335;29;20197;-79
2021/08/03 05:00:34;;;;;;;2.83;0.88;;;15.20;99.90;;;;;;4940423;29;20216;-79
2021/08/03 05:02:59;;;;;;;0.85;0.73;;;15.20;99.90;;;;;;4940056;29;20233;-79
2021/08/03 05:05:25;;;;;;;1.15;1.05;;;15.30;99.90;;;;;;4939404;29;20245;-79
2021/08/03 05:07:58;;;;;;;2.60;0.80;;;15.40;99.90;;;;;;4938637;29;20202;-78
2021/08/03 05:10:25;;;;;;;1.55;0.80;;;15.60;99.90;;;;;;4941013;29;20221;-79
2021/08/03 05:12:51;;;;;;;2.22;1.10;;;15.80;99.90;;;;;;4938966;29;20249;-78
2021/08/03 05:15:17;;;;;;;1.58;1.23;;;15.90;99.90;;;;;;4938777;29;20214;-79
2021/08/03 05:17:42;;;;;;;1.10;0.90;;;16.00;99.90;;;;;;4939377;29;20214;-79
2021/08/03 05:20:09;;;;;;;2.45;1.23;;;16.10;99.90;;;;;;4938699;29;20213;-78
2021/08/03 05:22:35;;;;;;;2.15;1.10;;;16.20;99.90;;;;;;4938332;29;20182;-79
2021/08/03 05:25:00;;;;;;;1.20;1.10;;;16.20;99.90;;;;;;4938397;29;20201;-79
2021/08/03 05:27:26;;;;;;;1.75;0.80;;;16.10;99.90;;;;;;4939738;29;20236;-78
2021/08/03 05:29:52;;;;;;;1.08;0.90;;;16.00;99.90;;;;;;4937865;29;20213;-78
2021/08/03 05:32:17;;;;;;;2.38;1.25;;;16.10;99.90;;;;;;4939628;29;20194;-78
2021/08/03 05:34:43;;;;;;;1.10;0.90;;;16.30;99.90;;;;;;4939343;29;20548;-78
2021/08/03 05:37:09;;;;;;;2.55;1.20;;;16.50;99.90;;;;;;4939556;29;20233;-79
2021/08/03 05:39:34;;;;;;;2.75;1.10;;;16.60;99.90;;;;;;4939196;29;20238;-79
2021/08/03 05:42:00;;;;;;;3.58;1.45;;;16.60;99.90;;;;;;4937882;29;20250;-79
2021/08/03 05:44:27;;;;;;;1.08;1.02;;;16.40;99.90;;;;;;4938659;29;20656;-77
2021/08/03 05:46:53;;;;;;;1.58;0.70;;;16.30;99.90;;;;;;4938474;29;20202;-78
2021/08/03 05:49:19;;;;;;;1.92;1.10;;;16.30;99.90;;;;;;4937800;29;20190;-78
2021/08/03 05:51:44;;;;;;;0.80;0.73;;;16.30;99.90;;;;;;4937730;29;20182;-78
2021/08/03 05:54:10;;;;;;;0.80;0.80;;;16.40;99.90;;;;;;4938847;29;20202;-79
2021/08/03 05:56:38;;;;;;;1.13;0.70;;;16.70;99.90;;;;;;4937480;29;20249;-79
2021/08/03 05:59:03;;;;;;;1.35;1.15;;;16.80;99.90;;;;;;4937929;29;20575;-79
2021/08/03 06:01:29;;;;;;;1.73;0.82;;;16.80;99.90;;;;;;4938038;29;20182;-79
2021/08/03 06:03:55;;;;;;;0.93;0.77;;;16.90;99.90;;;;;;4937592;29;20554;-79
2021/08/03 06:06:21;;;;;;;1.17;0.82;;;17.00;99.90;;;;;;4939801;29;20206;-78
2021/08/03 06:08:47;;;;;;;0.82;0.82;;;17.20;99.90;;;;;;4938313;29;20272;-79
2021/08/03 06:11:17;;;;;;;2.08;0.90;;;17.20;99.90;;;;;;4939007;29;20186;-79
2021/08/03 06:13:47;;;;;;;0.73;0.50;;;17.20;99.90;;;;;;4938939;29;20189;-78
2021/08/03 06:16:19;;;;;;;0.80;0.70;;;17.20;99.90;;;;;;4937819;29;20564;-78
2021/08/03 06:18:46;;;;;;;1.27;0.68;;;17.30;99.90;;;;;;4936944;29;21043;-79
2021/08/03 06:21:13;;;;;;;0.90;0.77;;;17.30;99.90;;;;;;4937254;29;20669;-78
2021/08/03 06:23:39;;;;;;;0.50;0.50;;;17.40;99.90;;;;;;4937481;29;20205;-79
2021/08/03 06:26:05;;;;;;;1.30;0.88;;;17.40;99.90;;;;;;4938252;29;20210;-78
2021/08/03 06:28:31;;;;;;;2.92;0.90;;;17.50;99.90;;;;;;4937522;29;20884;-79
2021/08/03 06:30:58;;;;;;;1.55;0.50;;;17.50;99.90;;;;;;4935397;29;20194;-79
2021/08/03 06:33:24;;;;;;;0.80;0.70;;;17.50;99.90;;;;;;4929849;29;20195;-78
2021/08/03 06:35:51;;;;;;;1.52;0.98;;;17.50;99.90;;;;;;4931557;29;20218;-79
2021/08/03 06:38:17;;;;;;;2.05;0.80;;;17.40;99.90;;;;;;4938685;29;20305;-78
2021/08/03 06:40:50;;;;;;;0.90;0.60;;;17.40;99.90;;;;;;4937222;29;20241;-79
2021/08/03 06:43:17;;;;;;;0.70;0.70;;;17.40;99.90;;;;;;4937318;29;20253;-79
2021/08/03 06:45:48;;;;;;;1.67;1.00;;;17.60;99.90;;;;;;4937991;29;20186;-79
2021/08/03 06:48:22;;;;;;;0.90;0.80;;;17.70;99.90;;;;;;4938192;29;20186;-78
2021/08/03 06:51:02;;;;;;;1.13;0.80;;;17.80;99.90;;;;;;4929279;29;20197;-76
2021/08/03 06:53:29;;;;;;;5.63;0.98;;;17.90;99.90;;;;;;4925553;29;20660;-75
2021/08/03 06:55:57;;;;;;;1.30;0.65;;;18.30;99.90;;;;;;4928635;29;20209;-78
2021/08/03 06:58:39;;;;;;;1.05;0.70;;;18.60;99.90;;;;;;4930558;29;20198;-78
2021/08/03 07:01:07;;;;;;;1.40;0.93;;;18.90;99.90;;;;;;4934804;29;20217;-76
2021/08/03 07:03:38;;;;;;;2.28;0.70;;;19.10;99.90;;;;;;4934876;29;20193;-78
2021/08/03 07:06:07;;;;;;;1.58;0.60;;;19.20;99.90;;;;;;4935464;29;20257;-78
2021/08/03 07:08:34;;;;;;;1.77;0.50;;;19.20;99.90;;;;;;4934945;29;20217;-77
2021/08/03 07:11:01;;;;;;;0.45;0.43;;;19.40;99.90;;;;;;4936047;29;20182;-78
2021/08/03 07:13:29;;;;;;;0.77;0.60;;;19.50;99.90;;;;;;4934996;29;20198;-77
2021/08/03 07:15:55;;;;;;;1.02;0.60;;;19.60;99.90;;;;;;4934081;29;20280;-78
2021/08/03 07:18:22;;;;;;;1.38;0.73;;;19.50;99.90;;;;;;4932628;29;20190;-77
2021/08/03 07:20:49;;;;;;;0.60;0.60;;;19.40;99.90;;;;;;4933174;29;20206;-76
2021/08/03 07:23:18;;;;;;;2.03;0.85;;;19.40;99.90;;;;;;4934204;29;20234;-78
2021/08/03 07:25:47;;;;;;;2.25;0.90;;;19.20;99.90;;;;;;4934151;29;20244;-76
2021/08/03 07:28:13;;;;;;;1.98;0.73;;;19.50;99.90;;;;;;4934715;29;20284;-78
2021/08/03 07:30:41;;;;;;;1.02;0.70;;;19.70;99.90;;;;;;4933651;29;20245;-77
2021/08/03 07:33:10;;;;;;;2.40;1.00;;;19.60;99.90;;;;;;4933386;29;20193;-78
2021/08/03 07:35:39;;;;;;;0.88;0.88;;;19.60;99.90;;;;;;4933352;29;20191;-77
2021/08/03 07:38:05;;;;;;;1.08;0.80;;;19.80;99.90;;;;;;4932287;29;20202;-78
2021/08/03 07:40:30;;;;;;;1.38;0.63;;;19.80;99.90;;;;;;4932386;29;20580;-78
2021/08/03 07:42:56;;;;;;;2.65;0.90;;;19.80;99.90;;;;;;4934355;29;20184;-78
2021/08/03 07:45:22;;;;;;;1.17;1.00;;;19.80;99.90;;;;;;4933512;29;20653;-77
2021/08/03 07:47:47;;;;;;;0.95;0.75;;;20.30;99.90;;;;;;4935764;29;20747;-78
2021/08/03 07:50:14;;;;;;;1.48;0.90;;;20.30;99.90;;;;;;4934844;29;20277;-78
2021/08/03 07:52:39;;;;;;;0.85;0.82;;;20.40;99.90;;;;;;4934464;29;20609;-78
2021/08/03 07:55:05;;;;;;;0.98;0.60;;;20.50;99.90;;;;;;4935231;29;20221;-77
2021/08/03 07:57:31;;;;;;;0.70;0.70;;;20.70;99.90;;;;;;4935040;29;20206;-77
2021/08/03 07:59:56;;;;;;;1.20;0.70;;;20.50;99.90;;;;;;4934232;29;20214;-77
2021/08/03 08:02:24;;;;;;;1.67;0.95;;;20.10;99.90;;;;;;4934215;29;20559;-77
2021/08/03 08:04:49;;;;;;;0.95;0.63;;;20.10;99.90;;;;;;4934282;29;20185;-78
2021/08/03 08:07:15;;;;;;;0.70;0.63;;;19.70;99.90;;;;;;4933525;29;20210;-76
2021/08/03 08:09:40;;;;;;;0.70;0.70;;;19.70;99.90;;;;;;4933729;29;20641;-75
2021/08/03 08:12:06;;;;;;;3.70;1.23;;;19.90;99.90;;;;;;4932210;29;20775;-77
2021/08/03 08:14:34;;;;;;;1.67;1.25;;;20.00;99.90;;;;;;4933374;29;20197;-77
2021/08/03 08:17:00;;;;;;;1.10;0.90;;;19.80;99.90;;;;;;4933611;29;20258;-77
2021/08/03 08:19:26;;;;;;;1.35;1.02;;;19.70;99.90;;;;;;4931978;29;20214;-76
2021/08/03 08:21:52;;;;;;;1.95;1.33;;;19.80;99.90;;;;;;4933470;29;20193;-76
2021/08/03 08:24:18;;;;;;;0.93;0.82;;;20.10;99.90;;;;;;4930783;29;20521;-75
2021/08/03 08:26:45;;;;;;;0.95;0.80;;;20.40;99.90;;;;;;4934197;29;20261;-76
2021/08/03 08:29:10;;;;;;;2.38;1.00;;;20.60;99.90;;;;;;4932306;29;20186;-77
2021/08/03 08:31:38;;;;;;;0.50;0.50;;;20.80;99.90;;;;;;4932874;29;20186;-77
2021/08/03 08:34:04;;;;;;;0.50;0.50;;;21.00;99.90;;;;;;4934704;29;20197;-77
2021/08/03 08:36:29;;;;;;;1.58;0.82;;;21.00;99.90;;;;;;4935390;29;20210;-75
2021/08/03 08:38:55;;;;;;;0.60;0.60;;;21.10;99.90;;;;;;4933553;29;20210;-76
2021/08/03 08:41:21;;;;;;;1.92;0.80;;;20.80;99.90;;;;;;4934863;29;20187;-77
2021/08/03 08:43:47;;;;;;;2.75;0.85;;;20.90;99.90;;;;;;4932762;29;20277;-76
2021/08/03 08:46:13;;;;;;;2.65;0.80;;;20.90;99.90;;;;;;4933053;29;20610;-77
2021/08/03 08:48:38;;;;;;;1.20;1.10;;;20.90;99.90;;;;;;4931815;29;20277;-77
2021/08/03 08:51:06;;;;;;;0.95;0.90;;;21.00;99.90;;;;;;4932659;29;20190;-77
2021/08/03 08:53:34;;;;;;;1.27;1.05;;;21.20;99.90;;;;;;4934959;29;20201;-78
2021/08/03 08:56:00;;;;;;;1.17;0.95;;;21.30;99.90;;;;;;4934624;29;20206;-77
2021/08/03 08:58:26;;;;;;;1.20;1.10;;;21.30;99.90;;;;;;4934836;29;20224;-78
2021/08/03 09:00:52;;;;;;;1.35;1.13;;;21.70;99.90;;;;;;4932337;29;20845;-76
2021/08/03 09:03:17;;;;;;;2.55;1.45;;;21.90;99.90;;;;;;4934846;29;20190;-76
2021/08/03 09:05:43;;;;;;;1.45;0.95;;;21.90;99.90;;;;;;4937305;29;20187;-78
2021/08/03 09:08:10;;;;;;;1.17;1.10;;;21.70;99.90;;;;;;4933662;29;20187;-77
2021/08/03 09:10:49;;;;;;;1.00;1.00;;;21.80;99.90;;;;;;4935952;29;20174;-78
2021/08/03 09:13:23;;;;;;;2.75;1.15;;;21.80;99.90;;;;;;4935061;29;20244;-77
2021/08/03 09:16:00;;;;;;;0.80;0.80;;;21.80;99.90;;;;;;4937689;29;20344;-76
2021/08/03 09:18:30;;;;;;;1.17;1.02;;;22.10;99.90;;;;;;4951541;29;20261;-77
2021/08/03 09:20:55;;;;;;;1.00;1.00;;;22.10;99.90;;;;;;4935202;29;20210;-79
2021/08/03 09:23:40;;;;;;;1.85;1.10;;;21.80;99.90;;;;;;4932565;29;21116;-76
2021/08/03 09:26:06;;;;;;;1.55;1.40;;;22.00;99.90;;;;;;4933882;29;20829;-75
2021/08/03 09:28:32;;;;;;;1.20;1.10;;;21.70;99.90;;;;;;4932724;29;20270;-75
2021/08/03 09:30:58;;;;;;;1.30;1.20;;;21.70;99.90;;;;;;4932171;29;20273;-76
2021/08/03 09:33:26;;;;;;;1.50;1.40;;;21.70;99.90;;;;;;4934074;29;20205;-77
2021/08/03 09:35:52;;;;;;;1.40;1.20;;;21.50;99.90;;;;;;4935354;29;20210;-76
2021/08/03 09:38:19;;;;;;;1.20;1.15;;;21.60;99.90;;;;;;4934845;29;20206;-76
2021/08/03 09:40:46;;;;;;;1.70;1.30;;;21.50;99.90;;;;;;4935956;29;20270;-76
2021/08/03 09:43:15;;;;;;;1.08;1.08;;;21.70;99.90;;;;;;4935689;29;20184;-78
2021/08/03 09:45:47;;;;;;;1.20;1.20;;;21.70;99.90;;;;;;5061042;27;20603;-67
2021/08/03 09:48:18;;;;;;;2.95;1.52;;;21.80;99.90;;;;;;5061412;28;20831;-67
2021/08/03 09:50:54;;;;;;;2.05;1.88;;;21.80;99.90;;;;;;5061078;28;20267;-66
2021/08/03 09:53:48;;;;;;;1.70;1.58;;;22.00;99.90;;;;;;5061388;28;20655;-66
2021/08/03 09:56:18;;;;;;;1.70;1.60;;;21.90;99.90;;;;;;5061201;28;20226;-66
2021/08/03 09:59:00;;;;;;;1.58;1.40;;;21.90;99.90;;;;;;5061509;28;20177;-70
2021/08/03 10:01:34;;;;;;;2.67;1.88;;;22.40;99.90;;;;;;5059975;28;20192;-69
2021/08/03 10:04:01;;;;;;;1.38;1.27;;;22.70;99.90;;;;;;5060491;28;20229;-67
2021/08/03 10:06:27;;;;;;;1.83;1.73;;;22.80;99.90;;;;;;5061083;28;20194;-68
2021/08/03 10:08:54;;;;;;;1.80;1.70;;;22.40;99.90;;;;;;5060279;28;20177;-67
2021/08/03 10:11:21;;;;;;;1.90;1.80;;;22.40;99.90;;;;;;5057022;28;20463;-69
2021/08/03 10:13:47;;;;;;;2.10;1.50;;;22.60;99.90;;;;;;5060755;28;20178;-67
2021/08/03 10:16:14;;;;;;;5.00;2.05;;;23.00;99.90;;;;;;5060471;28;20194;-66
2021/08/03 10:18:42;;;;;;;1.70;1.60;;;23.10;99.90;;;;;;5061097;28;20188;-68
2021/08/03 10:21:36;;;;;;;2.95;1.75;;;23.20;99.90;;;;;;5060273;28;20281;-66
2021/08/03 10:24:30;;;;;;;1.55;1.42;;;23.30;99.90;;;;;;5056042;28;20266;-68
2021/08/03 10:27:15;;;;;;;4.88;1.40;;;23.40;99.90;;;;;;5060060;28;20237;-67
2021/08/03 10:29:48;;;;;;;1.50;1.40;;;23.70;99.90;;;;;;5060496;28;20178;-68
2021/08/03 10:32:39;;;;;;;1.88;1.40;;;24.20;99.90;;;;;;5060394;28;20563;-66
2021/08/03 10:35:16;;;;;;;1.95;1.58;;;24.40;99.90;;;;;;5056080;28;20251;-66
2021/08/03 10:38:00;;;;;;;2.20;1.55;;;24.20;99.90;;;;;;5059790;28;20287;-67
2021/08/03 10:40:44;;;;;;;1.63;1.52;;;24.40;99.90;;;;;;5059762;28;20711;-67
2021/08/03 10:43:20;;;;;;;2.20;1.70;;;24.70;99.90;;;;;;5059762;28;21067;-65
2021/08/03 10:45:48;;;;;;;3.08;1.58;;;24.30;99.90;;;;;;5059395;28;20201;-67
2021/08/03 10:48:38;;;;;;;2.00;1.80;;;23.90;99.90;;;;;;5060161;28;20182;-66
2021/08/03 10:51:16;;;;;;;5.55;1.35;;;23.50;99.90;;;;;;5059739;28;20170;-68
2021/08/03 10:54:07;;;;;;;2.17;1.98;;;23.60;99.90;;;;;;5059903;28;20189;-68
2021/08/03 10:56:52;;;;;;;1.40;1.30;;;23.80;99.90;;;;;;5049725;28;20225;-65
2021/08/03 10:59:37;;;;;;;1.45;1.33;;;23.40;99.90;;;;;;5045381;28;20197;-65
2021/08/03 11:02:08;;;;;;;1.50;1.40;;;23.40;99.90;;;;;;5046367;28;20181;-65
2021/08/03 11:04:40;;;;;;;1.30;1.20;;;23.30;99.90;;;;;;5045566;28;20241;-66
2021/08/03 11:07:24;;;;;;;1.35;1.25;;;23.10;99.90;;;;;;5045428;28;20615;-67
2021/08/03 11:09:51;;;;;;;1.30;1.20;;;22.90;99.90;;;;;;5045621;28;20548;-66
2021/08/03 11:12:35;;;;;;;1.70;1.60;;;22.60;99.90;;;;;;5045687;28;20174;-66
2021/08/03 11:15:34;;;;;;;1.40;1.30;;;22.70;99.90;;;;;;5044183;28;20186;-67
2021/08/03 11:18:08;;;;;;;1.23;1.08;;;22.70;99.90;;;;;;5038054;28;20206;-66
2021/08/03 11:20:37;;;;;;;2.90;1.30;;;22.80;99.90;;;;;;5046260;28;20181;-68
2021/08/03 11:23:07;;;;;;;1.30;1.20;;;22.70;99.90;;;;;;5045823;28;20190;-67
2021/08/03 11:25:34;;;;;;;1.30;1.20;;;22.70;99.90;;;;;;5044171;28;20245;-66
2021/08/03 11:28:22;;;;;;;1.45;1.23;;;22.80;99.90;;;;;;5041672;28;20251;-67
2021/08/03 11:30:51;;;;;;;2.33;1.08;;;22.90;99.90;;;;;;5045912;28;20179;-67
2021/08/03 11:33:19;;;;;;;1.83;1.20;;;22.80;99.90;;;;;;5046153;28;20184;-67
2021/08/03 11:35:45;;;;;;;1.30;1.20;;;22.80;99.90;;;;;;5045645;28;20288;-64
2021/08/03 11:38:13;;;;;;;1.30;1.17;;;22.70;99.90;;;;;;5045899;28;20273;-66
2021/08/03 11:40:39;;;;;;;1.10;1.00;;;22.70;99.90;;;;;;5046300;28;21289;-67
2021/08/03 11:43:06;;;;;;;2.05;1.00;;;22.90;99.90;;;;;;5045633;28;20205;-66
2021/08/03 11:45:36;;;;;;;3.38;1.20;;;23.10;99.90;;;;;;5045011;28;20601;-65
2021/08/03 11:48:04;;;;;;;1.20;1.10;;;23.20;99.90;;;;;;5045802;28;20224;-65
2021/08/03 11:50:29;;;;;;;2.30;1.58;;;23.30;99.90;;;;;;5045480;28;20218;-68
2021/08/03 11:53:17;;;;;;;1.20;1.10;;;23.40;99.90;;;;;;5045241;28;20213;-66
2021/08/03 11:56:02;;;;;;;1.08;1.02;;;23.50;99.90;;;;;;5044943;28;20204;-66
2021/08/03 11:58:30;;;;;;;1.00;0.90;;;23.60;99.90;;;;;;5045750;28;20252;-67
2021/08/03 12:00:57;;;;;;;1.75;1.27;;;23.60;99.90;;;;;;5044847;28;20669;-66
2021/08/03 12:03:30;;;;;;;2.58;1.63;;;23.60;99.90;;;;;;5045853;28;20178;-66
2021/08/03 12:06:03;;;;;;;1.35;1.10;;;23.40;99.90;;;;;;5045067;28;20209;-68
2021/08/03 12:08:37;;;;;;;16.98;2.45;;;23.60;99.90;;;;;;5044611;28;20541;-68
2021/08/03 12:11:04;;;;;;;1.63;1.42;;;23.60;99.90;;;;;;5046032;28;20169;-66
2021/08/03 12:13:32;;;;;;;1.05;0.95;;;23.80;99.90;;;;;;5045710;28;20170;-67
2021/08/03 12:16:00;;;;;;;2.03;1.20;;;24.10;99.90;;;;;;5045051;28;20198;-68
2021/08/03 12:18:40;;;;;;;1.27;1.17;;;24.20;99.90;;;;;;5046377;28;20179;-67
2021/08/03 12:21:07;;;;;;;1.92;1.40;;;24.30;99.90;;;;;;5046564;28;20170;-67
2021/08/03 12:23:34;;;;;;;1.85;1.30;;;24.20;99.90;;;;;;5046058;28;20186;-66
2021/08/03 12:26:06;;;;;;;1.65;1.55;;;24.50;99.90;;;;;;5044942;28;20212;-67
2021/08/03 12:28:43;;;;;;;0.90;0.90;;;24.40;99.90;;;;;;5045690;28;20206;-67
2021/08/03 12:31:22;;;;;;;1.27;1.00;;;24.30;99.90;;;;;;5045669;28;20201;-67
2021/08/03 12:33:49;;;;;;;2.17;0.88;;;24.40;99.90;;;;;;5044633;28;20210;-67
2021/08/03 12:36:16;;;;;;;1.63;1.20;;;24.50;99.90;;;;;;5044950;28;20277;-66
2021/08/03 12:39:07;;;;;;;1.20;1.10;;;24.40;99.90;;;;;;5045464;28;20210;-69
2021/08/03 12:41:34;;;;;;;1.55;1.30;;;24.40;99.90;;;;;;5045227;28;20538;-67
2021/08/03 12:44:01;;;;;;;1.10;1.00;;;24.30;99.90;;;;;;5043344;28;20218;-67
2021/08/03 12:46:37;;;;;;;3.55;1.27;;;24.20;99.90;;;;;;5042532;28;20202;-66
2021/08/03 12:49:06;;;;;;;1.95;1.00;;;24.20;99.90;;;;;;5042927;28;20170;-66
2021/08/03 12:51:34;;;;;;;1.48;1.20;;;24.00;99.70;;;;;;5042116;28;20607;-68
2021/08/03 12:54:17;;;;;;;1.20;1.10;;;23.90;99.90;;;;;;5042496;28;20174;-68
2021/08/03 12:57:12;;;;;;;1.10;1.00;;;23.40;99.90;;;;;;5044734;28;20669;-67
2021/08/03 12:59:43;;;;;;;1.30;1.20;;;22.90;99.90;;;;;;5043944;28;20190;-67